Time;durP1;ratioP1;P1;durP2;ratioP2;P2;SDS_P1;SDS_P2;PMS_P1;PMS_P2;Temp;Humidity;BMP_temperature;BMP_pressure;BME280_temperature;BME280_humidity;BME280_pressure;Samples;Min_cycle;Max_cycle;Signal;HPM_P1;HPM_P2
2024/04/02 00:01:30;;;;;;;2.15;0.70;;;9.40;99.90;;;;;;7340474;32;20233;-59
2024/04/02 00:05:31;;;;;;;1.12;0.43;;;9.30;99.90;;;;;;7344487;32;20197;-58
2024/04/02 00:09:32;;;;;;;3.25;0.80;;;9.10;99.90;;;;;;7333971;32;20111;-58
2024/04/02 00:13:35;;;;;;;4.10;0.70;;;9.10;99.90;;;;;;7344346;32;20128;-58
2024/04/02 00:17:37;;;;;;;3.60;0.60;;;9.10;99.90;;;;;;7338107;32;20127;-58
2024/04/02 00:21:38;;;;;;;1.92;0.60;;;9.00;99.90;;;;;;7343191;32;20110;-57
2024/04/02 00:25:39;;;;;;;1.62;0.50;;;8.90;99.90;;;;;;7342814;32;20152;-60
2024/04/02 00:29:44;;;;;;;3.15;0.60;;;8.90;99.90;;;;;;7342222;32;20103;-58
2024/04/02 00:33:47;;;;;;;1.48;0.40;;;8.70;99.90;;;;;;7346935;32;20884;-56
2024/04/02 00:37:51;;;;;;;1.62;0.47;;;8.60;99.90;;;;;;7334276;32;20257;-57
2024/04/02 00:41:52;;;;;;;2.58;0.70;;;8.60;99.90;;;;;;7342324;32;20163;-59
2024/04/02 00:45:54;;;;;;;2.05;0.50;;;8.50;99.90;;;;;;7341740;32;20159;-59
2024/04/02 00:49:55;;;;;;;2.60;0.55;;;8.60;99.90;;;;;;7333613;32;20238;-58
2024/04/02 00:53:56;;;;;;;1.33;0.45;;;8.50;99.90;;;;;;7343179;32;20111;-59
2024/04/02 00:57:57;;;;;;;2.10;0.40;;;8.50;99.90;;;;;;7336359;32;20474;-58
2024/04/02 01:01:58;;;;;;;2.70;0.45;;;8.60;99.90;;;;;;7342554;32;20156;-58
2024/04/02 01:06:00;;;;;;;2.75;0.60;;;8.60;99.90;;;;;;7342972;32;20115;-58
2024/04/02 01:10:01;;;;;;;4.70;0.57;;;8.60;99.90;;;;;;7343670;32;20763;-59
2024/04/02 01:14:02;;;;;;;3.10;0.40;;;8.60;99.90;;;;;;7349063;32;20139;-58
2024/04/02 01:18:03;;;;;;;2.40;0.50;;;8.60;99.90;;;;;;7344678;32;20139;-58
2024/04/02 01:22:04;;;;;;;2.03;0.60;;;8.50;99.90;;;;;;7342691;32;20158;-60
2024/04/02 01:26:05;;;;;;;1.50;0.40;;;8.50;99.90;;;;;;7350799;32;20270;-60
2024/04/02 01:30:06;;;;;;;2.92;0.80;;;8.60;99.90;;;;;;7345049;32;20137;-58
2024/04/02 01:34:07;;;;;;;2.10;0.60;;;8.50;99.90;;;;;;7343644;32;20120;-59
2024/04/02 01:38:08;;;;;;;2.60;0.45;;;8.60;99.90;;;;;;7342558;32;20096;-59
2024/04/02 01:42:09;;;;;;;3.80;0.60;;;8.60;99.90;;;;;;7344084;32;21093;-59
2024/04/02 01:46:10;;;;;;;2.97;0.60;;;8.50;99.90;;;;;;7347217;32;20693;-60
2024/04/02 01:50:11;;;;;;;2.35;0.60;;;8.50;99.90;;;;;;7341835;32;20194;-58
2024/04/02 01:54:12;;;;;;;2.05;0.62;;;8.40;99.90;;;;;;7340041;32;20161;-57
2024/04/02 01:58:13;;;;;;;4.80;0.80;;;8.50;99.90;;;;;;7339836;32;20258;-58
2024/04/02 02:02:13;;;;;;;1.95;0.45;;;8.60;99.90;;;;;;7343594;32;20531;-58
2024/04/02 02:06:14;;;;;;;4.50;0.40;;;8.70;99.90;;;;;;7338843;32;20203;-58
2024/04/02 02:10:16;;;;;;;1.90;0.62;;;8.70;99.90;;;;;;7341586;32;20241;-59
2024/04/02 02:14:17;;;;;;;2.42;0.85;;;8.70;99.90;;;;;;7341974;32;20142;-57
2024/04/02 02:18:18;;;;;;;3.50;0.50;;;8.70;99.90;;;;;;7348006;32;20506;-59
2024/04/02 02:22:20;;;;;;;1.37;0.60;;;8.80;99.90;;;;;;7344610;32;20231;-59
2024/04/02 02:26:21;;;;;;;4.30;0.70;;;8.80;99.90;;;;;;7342053;32;20096;-57
2024/04/02 02:30:22;;;;;;;1.83;0.57;;;8.80;99.90;;;;;;7338718;32;20536;-58
2024/04/02 02:34:23;;;;;;;3.62;0.70;;;8.90;99.90;;;;;;7339412;32;20222;-59
2024/04/02 02:38:23;;;;;;;3.03;0.93;;;8.90;99.90;;;;;;7332223;32;20196;-58
2024/04/02 02:42:25;;;;;;;2.72;0.70;;;8.90;99.90;;;;;;7336912;32;20241;-59
2024/04/02 02:46:26;;;;;;;2.17;0.60;;;8.90;99.90;;;;;;7339181;32;20527;-59
2024/04/02 02:50:26;;;;;;;4.40;0.60;;;9.00;99.90;;;;;;7340150;32;20142;-58
2024/04/02 02:54:27;;;;;;;1.15;0.40;;;9.00;99.90;;;;;;7336980;32;20264;-58
2024/04/02 02:58:29;;;;;;;3.15;0.75;;;9.00;99.90;;;;;;7337339;32;20730;-58
2024/04/02 03:02:32;;;;;;;3.78;0.52;;;9.00;99.90;;;;;;7338719;32;20490;-58
2024/04/02 03:06:33;;;;;;;4.78;0.70;;;9.00;99.90;;;;;;7340173;32;20145;-57
2024/04/02 03:10:34;;;;;;;2.85;0.47;;;9.00;99.90;;;;;;7336730;32;20099;-58
2024/04/02 03:14:35;;;;;;;3.20;0.80;;;9.00;99.90;;;;;;7342549;32;20103;-58
2024/04/02 03:18:36;;;;;;;2.87;0.60;;;9.00;99.90;;;;;;7340910;32;20743;-57
2024/04/02 03:22:37;;;;;;;1.60;0.52;;;9.00;99.90;;;;;;7338267;32;20111;-58
2024/04/02 03:26:38;;;;;;;3.28;0.70;;;9.00;99.90;;;;;;7336108;32;20593;-59
2024/04/02 03:30:38;;;;;;;4.12;0.65;;;9.10;99.90;;;;;;7338623;32;20272;-58
2024/04/02 03:34:39;;;;;;;3.90;0.75;;;9.10;99.90;;;;;;7340719;32;20274;-58
2024/04/02 03:38:40;;;;;;;3.05;0.65;;;9.00;99.90;;;;;;7336518;32;20221;-58
2024/04/02 03:42:41;;;;;;;2.10;0.70;;;9.00;99.90;;;;;;7341950;32;20099;-57
2024/04/02 03:46:42;;;;;;;1.55;0.60;;;9.10;99.90;;;;;;7339835;32;20231;-57
2024/04/02 03:50:49;;;;;;;4.87;0.90;;;9.00;99.90;;;;;;7338166;32;20220;-58
2024/04/02 03:54:50;;;;;;;3.37;0.85;;;9.10;99.90;;;;;;7341835;32;20498;-58
2024/04/02 03:58:50;;;;;;;6.03;0.60;;;9.10;99.90;;;;;;7343596;32;20131;-58
2024/04/02 04:02:52;;;;;;;2.12;0.55;;;9.00;99.90;;;;;;7332095;32;20254;-58
2024/04/02 04:06:55;;;;;;;1.98;0.60;;;9.10;99.90;;;;;;7336338;32;20269;-58
2024/04/02 04:10:55;;;;;;;3.35;0.80;;;9.10;99.90;;;;;;7341777;32;20695;-57
2024/04/02 04:14:56;;;;;;;5.82;0.90;;;9.10;99.90;;;;;;7334455;32;20118;-57
2024/04/02 04:18:58;;;;;;;1.23;0.70;;;9.10;99.90;;;;;;7332242;32;20361;-57
2024/04/02 04:22:59;;;;;;;3.78;0.80;;;9.10;99.90;;;;;;7338937;32;20099;-59
2024/04/02 04:27:00;;;;;;;3.83;0.70;;;9.10;99.90;;;;;;7338133;32;20103;-58
2024/04/02 04:31:02;;;;;;;3.22;0.80;;;9.10;99.90;;;;;;7333721;32;20178;-58
2024/04/02 04:35:03;;;;;;;2.47;0.77;;;9.10;99.90;;;;;;7334806;32;20537;-58
2024/04/02 04:39:05;;;;;;;3.50;0.90;;;9.10;99.90;;;;;;7340513;32;20125;-58
2024/04/02 04:43:06;;;;;;;4.10;0.70;;;9.10;99.90;;;;;;7333440;32;20205;-57
2024/04/02 04:47:07;;;;;;;4.37;0.70;;;9.10;99.90;;;;;;7336396;32;20228;-57
2024/04/02 04:51:07;;;;;;;3.12;0.80;;;9.20;99.90;;;;;;7342502;32;20593;-57
2024/04/02 04:55:09;;;;;;;1.02;0.60;;;9.10;99.90;;;;;;7343062;32;20298;-59
2024/04/02 04:59:10;;;;;;;3.03;0.80;;;9.00;99.90;;;;;;7335347;32;20107;-57
2024/04/02 05:03:11;;;;;;;3.55;0.80;;;9.00;99.90;;;;;;7344126;32;20099;-57
2024/04/02 05:07:24;;;;;;;3.72;0.85;;;8.90;99.90;;;;;;7343342;32;20107;-59
2024/04/02 05:11:25;;;;;;;3.67;0.90;;;8.80;99.90;;;;;;7340819;32;20188;-58
2024/04/02 05:15:26;;;;;;;2.72;0.88;;;8.80;99.90;;;;;;7333775;32;20586;-59
2024/04/02 05:19:27;;;;;;;3.15;0.80;;;8.80;99.90;;;;;;7339949;32;20832;-58
2024/04/02 05:23:28;;;;;;;2.53;0.70;;;8.80;99.90;;;;;;7340588;32;20133;-58
2024/04/02 05:27:30;;;;;;;3.58;0.77;;;8.70;99.90;;;;;;7343703;32;20587;-58
2024/04/02 05:31:31;;;;;;;3.80;0.80;;;8.80;99.90;;;;;;7341182;32;20169;-58
2024/04/02 05:35:32;;;;;;;4.12;0.98;;;8.80;99.90;;;;;;7335512;32;20512;-58
2024/04/02 05:39:34;;;;;;;2.90;0.70;;;8.80;99.90;;;;;;7331495;32;20198;-59
2024/04/02 05:43:35;;;;;;;5.65;1.00;;;8.80;99.90;;;;;;7335606;32;20201;-58
2024/04/02 05:47:35;;;;;;;7.05;1.55;;;8.90;99.90;;;;;;7335654;32;20337;-57
2024/04/02 05:51:36;;;;;;;4.37;1.10;;;8.90;99.90;;;;;;7338554;32;20494;-58
2024/04/02 05:55:37;;;;;;;2.83;0.77;;;9.00;99.90;;;;;;7341435;32;20113;-58
2024/04/02 05:59:38;;;;;;;5.95;1.12;;;9.00;99.90;;;;;;7336669;32;20693;-58
2024/04/02 06:03:41;;;;;;;6.75;1.10;;;9.10;99.90;;;;;;7344807;32;20525;-58
2024/04/02 06:07:42;;;;;;;7.05;1.20;;;9.20;99.90;;;;;;7335498;32;20225;-58
2024/04/02 06:11:43;;;;;;;3.47;1.00;;;9.30;99.90;;;;;;7344906;32;20118;-58
2024/04/02 06:15:44;;;;;;;7.72;1.40;;;9.30;99.90;;;;;;7342614;32;20135;-59
2024/04/02 06:19:45;;;;;;;5.50;1.23;;;9.40;99.90;;;;;;7341876;32;20197;-57
2024/04/02 06:23:46;;;;;;;8.52;1.25;;;9.50;99.90;;;;;;7342126;32;20222;-57
2024/04/02 06:27:47;;;;;;;4.97;1.20;;;9.60;99.90;;;;;;7336265;32;20518;-57
2024/04/02 06:31:48;;;;;;;6.65;1.33;;;9.60;99.90;;;;;;7343064;32;20161;-58
2024/04/02 06:35:49;;;;;;;7.18;1.00;;;9.70;99.90;;;;;;7336329;32;20114;-57
2024/04/02 06:39:50;;;;;;;7.20;1.45;;;9.70;99.90;;;;;;7336958;32;20219;-57
2024/04/02 06:43:51;;;;;;;8.20;1.45;;;9.70;99.90;;;;;;7341317;32;20135;-59
2024/04/02 06:47:52;;;;;;;4.82;1.12;;;9.80;99.90;;;;;;7339420;32;20099;-58
2024/04/02 06:51:52;;;;;;;5.15;1.10;;;9.90;99.90;;;;;;7333831;32;20190;-57
2024/04/02 06:55:53;;;;;;;8.63;1.35;;;10.00;99.90;;;;;;7338735;32;20154;-58
2024/04/02 06:59:54;;;;;;;5.90;1.10;;;10.10;99.90;;;;;;7335585;32;20775;-59
2024/04/02 07:03:55;;;;;;;6.10;1.20;;;10.20;99.90;;;;;;7332776;32;20228;-58
2024/04/02 07:07:56;;;;;;;6.30;1.50;;;10.30;99.90;;;;;;7340507;32;20289;-59
2024/04/02 07:11:57;;;;;;;7.65;1.40;;;10.40;99.90;;;;;;7341715;32;20112;-58
2024/04/02 07:15:59;;;;;;;6.60;1.42;;;10.40;99.90;;;;;;7334636;32;20107;-58
2024/04/02 07:20:00;;;;;;;8.05;1.10;;;10.50;99.90;;;;;;7333611;32;20740;-58
2024/04/02 07:24:00;;;;;;;7.90;1.37;;;10.50;99.90;;;;;;7339731;32;20130;-58
2024/04/02 07:28:01;;;;;;;10.27;1.37;;;10.60;99.90;;;;;;7340632;32;20618;-58
2024/04/02 07:32:02;;;;;;;8.73;1.50;;;10.60;99.90;;;;;;7341612;32;20099;-57
2024/04/02 07:36:06;;;;;;;6.90;1.42;;;10.60;99.90;;;;;;7341224;32;20735;-57
2024/04/02 07:40:08;;;;;;;5.62;1.05;;;10.60;99.90;;;;;;7336894;32;20213;-59
2024/04/02 07:44:09;;;;;;;8.40;1.27;;;10.60;99.90;;;;;;7338532;32;20207;-58
2024/04/02 07:48:10;;;;;;;8.77;1.87;;;10.60;99.90;;;;;;7343662;32;20214;-58
2024/04/02 07:52:10;;;;;;;9.07;1.35;;;10.60;99.90;;;;;;7340459;32;20104;-57
2024/04/02 07:56:11;;;;;;;10.05;1.37;;;10.60;99.90;;;;;;7342333;32;20127;-57
2024/04/02 08:00:12;;;;;;;8.32;1.30;;;10.60;99.90;;;;;;7335345;32;20234;-57
2024/04/02 08:04:13;;;;;;;6.20;1.20;;;10.40;99.90;;;;;;7338124;32;20257;-58
2024/04/02 08:08:14;;;;;;;10.88;2.30;;;10.40;99.90;;;;;;7342312;32;20238;-58
2024/04/02 08:12:15;;;;;;;7.30;1.17;;;10.30;99.90;;;;;;7338222;32;20973;-58
2024/04/02 08:16:17;;;;;;;6.22;1.30;;;10.40;99.90;;;;;;7329036;32;20210;-57
2024/04/02 08:20:18;;;;;;;6.25;1.15;;;10.60;99.90;;;;;;7340171;32;20168;-58
2024/04/02 08:24:19;;;;;;;8.48;1.52;;;10.70;99.90;;;;;;7341930;32;20253;-58
2024/04/02 08:28:20;;;;;;;7.72;1.37;;;10.80;99.90;;;;;;7335368;32;20201;-58
2024/04/02 08:32:22;;;;;;;9.35;1.60;;;10.80;99.90;;;;;;7342621;32;20123;-57
2024/04/02 08:36:23;;;;;;;7.82;1.92;;;10.90;99.90;;;;;;7334511;32;20168;-59
2024/04/02 08:40:31;;;;;;;6.32;1.05;;;10.90;99.90;;;;;;7334972;32;20880;-59
2024/04/02 08:44:33;;;;;;;9.55;1.55;;;11.00;99.90;;;;;;7339415;32;20870;-58
2024/04/02 08:48:35;;;;;;;8.30;1.42;;;11.00;99.90;;;;;;7339338;32;20111;-58
2024/04/02 08:52:36;;;;;;;8.05;1.58;;;11.00;99.90;;;;;;7336070;32;20695;-58
2024/04/02 08:56:36;;;;;;;6.40;1.17;;;11.00;99.90;;;;;;7338579;32;20130;-57
2024/04/02 09:00:38;;;;;;;5.28;1.20;;;11.00;99.90;;;;;;7336385;32;20747;-58
2024/04/02 09:04:39;;;;;;;5.57;1.10;;;11.10;99.90;;;;;;7341232;32;20243;-57
2024/04/02 09:08:44;;;;;;;8.60;1.42;;;11.20;99.90;;;;;;7337176;32;20247;-57
2024/04/02 09:12:45;;;;;;;8.80;1.58;;;11.30;99.90;;;;;;7336934;32;20115;-57
2024/04/02 09:16:51;;;;;;;12.40;1.42;;;11.70;99.90;;;;;;7343684;32;20250;-59
2024/04/02 09:20:52;;;;;;;7.60;1.33;;;11.90;99.90;;;;;;7336532;32;20514;-58
2024/04/02 09:24:53;;;;;;;6.30;1.00;;;11.80;99.90;;;;;;7339557;32;20259;-59
2024/04/02 09:28:54;;;;;;;8.95;1.83;;;11.70;99.90;;;;;;7335790;32;20158;-58
2024/04/02 09:33:01;;;;;;;5.68;1.17;;;11.70;99.90;;;;;;7346944;32;20214;-58
2024/04/02 09:37:10;;;;;;;4.28;1.00;;;11.60;99.90;;;;;;7344135;32;20107;-59
2024/04/02 09:41:12;;;;;;;5.20;1.20;;;11.50;99.90;;;;;;7343069;32;20220;-58
2024/04/02 09:45:14;;;;;;;4.93;0.90;;;11.40;99.90;;;;;;7344493;32;20130;-57
2024/04/02 09:49:20;;;;;;;7.10;1.40;;;11.20;99.90;;;;;;7346669;32;20540;-59
2024/04/02 09:53:21;;;;;;;6.28;1.42;;;11.30;99.90;;;;;;7339454;32;20138;-56
2024/04/02 09:57:23;;;;;;;7.97;1.00;;;11.50;99.90;;;;;;7344388;32;20918;-57
2024/04/02 10:01:27;;;;;;;6.35;1.17;;;11.80;99.90;;;;;;7338986;32;20099;-58
2024/04/02 10:05:28;;;;;;;8.27;1.05;;;11.90;99.90;;;;;;7342021;32;20159;-57
2024/04/02 10:09:42;;;;;;;6.28;1.00;;;12.00;99.90;;;;;;7337075;32;20194;-57
2024/04/02 10:13:47;;;;;;;3.70;0.85;;;11.70;99.90;;;;;;7342750;32;20107;-57
2024/04/02 10:18:01;;;;;;;11.93;1.40;;;11.80;99.90;;;;;;7337486;32;20461;-58
2024/04/02 10:22:02;;;;;;;7.25;1.30;;;11.90;99.90;;;;;;7343664;32;20110;-58
2024/04/02 10:26:06;;;;;;;4.35;0.77;;;12.10;99.90;;;;;;7334757;32;20207;-58
2024/04/02 10:30:19;;;;;;;5.53;1.00;;;12.00;99.90;;;;;;7341962;32;20244;-58
2024/04/02 10:34:20;;;;;;;7.75;1.10;;;12.10;99.90;;;;;;7342155;32;20139;-59
2024/04/02 10:38:21;;;;;;;7.35;1.20;;;12.50;99.90;;;;;;7343936;32;20165;-59
2024/04/02 10:42:22;;;;;;;6.43;1.00;;;13.10;99.90;;;;;;7345027;32;20107;-60
2024/04/02 10:46:27;;;;;;;6.18;1.12;;;13.00;99.90;;;;;;7342675;32;20107;-58
2024/04/02 10:50:29;;;;;;;3.50;0.90;;;12.80;99.90;;;;;;7344984;32;20239;-58
2024/04/02 10:54:30;;;;;;;3.17;0.95;;;12.70;99.90;;;;;;7343357;32;20111;-58
2024/04/02 10:58:31;;;;;;;6.95;1.12;;;13.20;99.90;;;;;;7339370;32;20667;-59
2024/04/02 11:02:33;;;;;;;6.93;1.10;;;13.10;99.90;;;;;;7346495;32;20155;-59
2024/04/02 11:06:33;;;;;;;9.32;1.25;;;12.80;99.90;;;;;;7342830;32;20160;-58
2024/04/02 11:10:34;;;;;;;6.43;0.95;;;12.80;99.90;;;;;;7337613;32;20162;-59
2024/04/02 11:14:38;;;;;;;6.25;0.82;;;12.90;99.90;;;;;;7344125;32;20387;-58
2024/04/02 11:18:39;;;;;;;4.15;0.80;;;13.20;99.90;;;;;;7338634;32;20265;-58
2024/04/02 11:26:59;;;;;;;4.37;1.00;;;13.00;99.90;;;;;;7342058;32;20138;-58
2024/04/02 11:31:02;;;;;;;6.03;1.40;;;12.50;99.90;;;;;;7343415;32;20096;-58
2024/04/02 11:35:13;;;;;;;3.75;0.62;;;12.20;99.90;;;;;;7345019;32;20145;-58
2024/04/02 11:39:15;;;;;;;4.72;0.93;;;12.20;99.90;;;;;;7343164;32;20159;-58
2024/04/02 11:43:16;;;;;;;3.95;0.82;;;12.40;99.90;;;;;;7344506;32;20115;-58
2024/04/02 11:47:17;;;;;;;4.97;0.95;;;12.60;99.90;;;;;;7335777;32;20509;-58
2024/04/02 11:51:18;;;;;;;5.00;0.80;;;12.60;99.90;;;;;;7344153;32;20433;-57
2024/04/02 11:55:18;;;;;;;6.80;0.93;;;12.50;99.90;;;;;;7345671;32;20115;-58
2024/04/02 12:03:59;;;;;;;4.05;0.88;;;12.30;99.90;;;;;;7312377;32;20136;-57
2024/04/02 12:08:00;;;;;;;6.28;0.98;;;12.00;99.90;;;;;;7327025;32;20148;-57
2024/04/02 12:12:01;;;;;;;4.78;0.80;;;11.80;99.90;;;;;;7343446;32;20539;-63
2024/04/02 12:16:02;;;;;;;6.18;1.02;;;11.90;99.90;;;;;;7335632;32;20166;-63
2024/04/02 12:20:04;;;;;;;3.67;0.90;;;11.90;99.90;;;;;;7340012;32;20198;-62
2024/04/02 12:24:05;;;;;;;5.32;1.17;;;11.90;99.90;;;;;;7336830;32;20125;-62
2024/04/02 12:28:05;;;;;;;4.57;0.90;;;11.80;99.90;;;;;;7338135;32;20221;-58
2024/04/02 12:32:10;;;;;;;4.75;1.45;;;11.70;99.90;;;;;;7343737;32;20248;-59
2024/04/02 12:36:11;;;;;;;4.50;0.98;;;11.60;99.90;;;;;;7337568;32;20119;-58
2024/04/02 12:40:12;;;;;;;5.50;1.08;;;11.50;99.90;;;;;;7340201;32;20111;-58
2024/04/02 12:44:13;;;;;;;4.15;0.70;;;11.30;99.90;;;;;;7342650;32;20585;-58
2024/04/02 12:48:14;;;;;;;3.97;0.77;;;11.10;99.90;;;;;;7338931;32;20601;-58
2024/04/02 12:52:16;;;;;;;3.78;0.60;;;10.80;99.90;;;;;;7340066;32;20107;-58
2024/04/02 12:56:17;;;;;;;4.82;0.68;;;10.60;99.90;;;;;;7342551;32;20118;-58
2024/04/02 13:00:18;;;;;;;4.40;0.85;;;10.60;99.90;;;;;;7336887;32;20104;-58
2024/04/02 13:04:24;;;;;;;5.22;1.02;;;10.70;99.90;;;;;;7342465;32;20103;-58
2024/04/02 13:08:25;;;;;;;3.28;0.70;;;10.90;99.90;;;;;;7346182;32;20533;-59
2024/04/02 13:12:26;;;;;;;6.32;1.10;;;10.90;99.90;;;;;;7345385;32;20290;-58
2024/04/02 13:16:34;;;;;;;5.37;0.95;;;11.10;99.90;;;;;;7344722;32;20111;-60
2024/04/02 13:20:35;;;;;;;3.83;0.95;;;11.20;99.90;;;;;;7343848;32;20559;-58
2024/04/02 13:24:36;;;;;;;4.40;1.00;;;11.20;99.90;;;;;;7349031;32;20261;-58
2024/04/02 13:28:38;;;;;;;4.18;1.00;;;11.20;99.90;;;;;;7343634;32;20107;-58
2024/04/02 13:32:39;;;;;;;6.18;0.70;;;11.10;99.90;;;;;;7346066;32;20129;-58
2024/04/02 13:36:40;;;;;;;10.93;1.30;;;11.10;99.90;;;;;;7347309;32;20099;-58
2024/04/02 13:40:41;;;;;;;6.12;0.98;;;11.00;99.90;;;;;;7344913;32;20520;-59
2024/04/02 13:44:42;;;;;;;3.97;0.95;;;11.00;99.90;;;;;;7344364;32;20111;-59
2024/04/02 13:48:43;;;;;;;6.18;0.98;;;11.00;99.90;;;;;;7346426;32;20103;-58
2024/04/02 13:52:44;;;;;;;6.37;1.15;;;11.00;99.90;;;;;;7345486;32;20258;-58
2024/04/02 13:56:46;;;;;;;8.13;1.77;;;11.10;99.90;;;;;;7340992;32;20186;-58
2024/04/02 14:00:47;;;;;;;7.72;1.10;;;11.00;99.90;;;;;;7327755;32;20203;-59
2024/04/02 14:04:48;;;;;;;6.95;1.10;;;11.10;99.90;;;;;;7345147;32;20706;-59
2024/04/02 14:08:49;;;;;;;5.62;1.10;;;11.10;99.90;;;;;;7342908;32;20745;-59
2024/04/02 14:12:50;;;;;;;6.40;1.50;;;11.20;99.90;;;;;;7342358;32;20393;-59
2024/04/02 14:16:50;;;;;;;9.05;1.27;;;11.10;99.90;;;;;;7343669;32;20150;-58
2024/04/02 14:20:55;;;;;;;7.28;1.30;;;11.00;99.90;;;;;;7344057;32;20130;-59
2024/04/02 14:24:57;;;;;;;8.55;1.33;;;10.90;99.90;;;;;;7343104;32;20573;-58
2024/04/02 14:28:58;;;;;;;7.85;1.20;;;11.00;99.90;;;;;;7344913;32;20123;-59
2024/04/02 14:32:59;;;;;;;7.50;1.67;;;11.00;99.90;;;;;;7343170;32;20148;-60
2024/04/02 14:36:59;;;;;;;7.85;1.35;;;11.10;99.90;;;;;;7343174;32;20111;-58
2024/04/02 14:41:04;;;;;;;5.25;1.10;;;11.10;99.90;;;;;;7334912;32;20152;-58
2024/04/02 14:45:05;;;;;;;7.62;1.30;;;11.00;99.90;;;;;;7339045;32;20946;-58
2024/04/02 14:49:06;;;;;;;5.82;1.33;;;10.90;99.90;;;;;;7335839;32;20198;-59
2024/04/02 14:53:07;;;;;;;7.05;1.20;;;10.80;99.90;;;;;;7340848;32;20146;-59
2024/04/02 14:57:09;;;;;;;6.87;1.65;;;10.80;99.90;;;;;;7340750;32;20152;-59
2024/04/02 15:01:12;;;;;;;5.93;1.40;;;10.90;99.90;;;;;;7340429;32;20199;-59
2024/04/02 15:05:15;;;;;;;8.07;1.12;;;10.90;99.90;;;;;;7338903;32;20280;-59
2024/04/02 15:09:16;;;;;;;6.87;1.30;;;11.00;99.90;;;;;;7338031;32;20189;-59
2024/04/02 15:13:17;;;;;;;5.53;1.15;;;11.50;99.90;;;;;;7345023;32;20434;-59
2024/04/02 15:17:18;;;;;;;9.55;3.95;;;11.60;99.90;;;;;;7339974;32;20227;-59
2024/04/02 15:21:18;;;;;;;8.52;1.60;;;11.80;99.90;;;;;;7345938;32;20130;-59
2024/04/02 15:25:19;;;;;;;7.32;1.52;;;11.80;99.90;;;;;;7337054;32;20107;-59
2024/04/02 15:29:20;;;;;;;9.00;1.20;;;11.90;99.90;;;;;;7344276;32;20212;-59
2024/04/02 15:33:21;;;;;;;5.37;1.48;;;11.90;99.90;;;;;;7345660;32;20123;-59
2024/04/02 15:37:22;;;;;;;5.72;1.27;;;11.80;99.90;;;;;;7344365;32;20503;-59
2024/04/02 15:41:23;;;;;;;8.32;1.42;;;12.00;99.90;;;;;;7341695;32;20524;-59
2024/04/02 15:45:24;;;;;;;4.97;1.35;;;11.90;99.90;;;;;;7342266;32;20254;-59
2024/04/02 15:49:25;;;;;;;7.07;1.40;;;11.90;99.90;;;;;;7336770;32;20146;-59
2024/04/02 15:53:27;;;;;;;9.02;1.90;;;12.00;99.90;;;;;;7343096;32;20936;-59
2024/04/02 15:57:28;;;;;;;6.03;1.52;;;12.00;99.90;;;;;;7334875;32;20233;-59
2024/04/02 16:01:29;;;;;;;5.37;1.30;;;12.10;99.90;;;;;;7336369;32;20148;-59
2024/04/02 16:05:30;;;;;;;6.90;1.40;;;12.10;99.90;;;;;;7344369;32;20536;-60
2024/04/02 16:09:32;;;;;;;4.40;0.93;;;12.10;99.90;;;;;;7344505;32;20301;-59
2024/04/02 16:13:33;;;;;;;7.25;1.48;;;12.10;99.90;;;;;;7334429;32;20487;-59
2024/04/02 16:17:34;;;;;;;7.35;1.27;;;12.20;99.90;;;;;;7337327;32;20313;-59
2024/04/02 16:21:35;;;;;;;9.60;1.73;;;12.20;99.90;;;;;;7342536;32;20552;-59
2024/04/02 16:25:37;;;;;;;5.93;1.40;;;12.00;99.90;;;;;;7339385;32;20651;-59
2024/04/02 16:29:38;;;;;;;4.20;1.10;;;11.90;99.90;;;;;;7341393;32;20493;-59
2024/04/02 16:33:39;;;;;;;8.25;1.58;;;11.80;99.90;;;;;;7336897;32;20126;-59
2024/04/02 16:38:03;;;;;;;5.28;1.40;;;11.80;99.90;;;;;;7339540;32;20457;-59
2024/04/02 16:42:05;;;;;;;9.18;1.73;;;11.80;99.90;;;;;;7344027;32;20698;-59
2024/04/02 16:46:09;;;;;;;7.65;1.30;;;11.70;99.90;;;;;;7338233;32;20429;-59
2024/04/02 16:50:10;;;;;;;6.70;1.30;;;11.70;99.90;;;;;;7332816;32;20891;-59
2024/04/02 16:54:11;;;;;;;10.45;2.22;;;11.70;99.90;;;;;;7337953;32;20182;-59
2024/04/02 16:58:12;;;;;;;7.57;1.42;;;11.70;99.90;;;;;;7336130;32;20100;-58
2024/04/02 17:02:15;;;;;;;8.45;1.70;;;11.70;99.90;;;;;;7342550;32;20610;-59
2024/04/02 17:06:16;;;;;;;6.43;1.55;;;11.80;99.90;;;;;;7338852;32;20687;-59
2024/04/02 17:10:18;;;;;;;5.62;1.20;;;11.80;99.90;;;;;;7336681;32;20251;-57
2024/04/02 17:14:18;;;;;;;5.43;1.50;;;11.70;99.90;;;;;;7336867;32;20123;-56
2024/04/02 17:18:19;;;;;;;9.88;2.00;;;11.70;99.90;;;;;;7338588;32;20511;-57
2024/04/02 17:22:20;;;;;;;9.18;1.52;;;11.70;99.90;;;;;;7338558;32;20243;-58
2024/04/02 17:26:21;;;;;;;10.13;1.30;;;11.60;99.90;;;;;;7339897;32;20207;-57
2024/04/02 17:30:22;;;;;;;8.95;1.50;;;11.60;99.90;;;;;;7335399;32;20195;-57
2024/04/02 17:34:23;;;;;;;6.97;1.33;;;11.60;99.90;;;;;;7345421;32;20297;-58
2024/04/02 17:38:25;;;;;;;6.12;1.65;;;11.60;99.90;;;;;;7338500;32;20779;-59
2024/04/02 17:42:25;;;;;;;6.87;1.67;;;11.60;99.90;;;;;;7334327;32;20253;-58
2024/04/02 17:46:26;;;;;;;9.88;1.90;;;11.60;99.90;;;;;;7333595;32;20333;-58
2024/04/02 17:50:27;;;;;;;7.43;1.60;;;11.60;99.90;;;;;;7335926;32;20494;-60
2024/04/02 17:54:32;;;;;;;11.82;1.95;;;11.50;99.90;;;;;;7345585;32;20187;-60
2024/04/02 17:58:36;;;;;;;13.43;2.15;;;11.50;99.90;;;;;;7342818;32;20481;-57
2024/04/02 18:02:37;;;;;;;8.82;1.45;;;11.40;99.90;;;;;;7338374;32;20714;-59
2024/04/02 18:06:39;;;;;;;7.20;1.55;;;11.50;99.90;;;;;;7347189;32;20106;-57
2024/04/02 18:10:40;;;;;;;12.60;2.22;;;11.50;99.90;;;;;;7343595;32;20126;-57
2024/04/02 18:14:41;;;;;;;10.95;1.92;;;11.40;99.90;;;;;;7339697;32;20092;-58
2024/04/02 18:18:41;;;;;;;8.60;1.77;;;11.40;99.90;;;;;;7337598;32;20099;-57
2024/04/02 18:22:43;;;;;;;8.30;1.52;;;11.40;99.90;;;;;;7335981;32;20103;-57
2024/04/02 18:26:44;;;;;;;9.80;1.70;;;11.40;99.90;;;;;;7338726;32;20142;-57
2024/04/02 18:30:49;;;;;;;4.45;1.05;;;11.20;99.90;;;;;;7341142;32;20107;-58
2024/04/02 18:34:50;;;;;;;5.95;1.37;;;11.20;99.90;;;;;;7343417;32;20547;-57
2024/04/02 18:38:55;;;;;;;9.52;1.60;;;11.20;99.90;;;;;;7340380;32;20122;-58
2024/04/02 18:42:57;;;;;;;11.93;2.22;;;11.10;99.90;;;;;;7341586;32;20198;-57
2024/04/02 18:46:58;;;;;;;8.57;1.80;;;11.00;99.90;;;;;;7340931;32;20191;-57
2024/04/02 18:50:59;;;;;;;7.10;1.70;;;10.90;99.90;;;;;;7337277;32;20119;-57
2024/04/02 18:55:00;;;;;;;12.23;1.80;;;10.90;99.90;;;;;;7341927;32;20115;-58
2024/04/02 18:59:01;;;;;;;9.40;2.30;;;10.90;99.90;;;;;;7341307;32;20148;-56
2024/04/02 19:03:02;;;;;;;8.57;2.00;;;10.90;99.90;;;;;;7338989;32;20107;-57
2024/04/02 19:07:08;;;;;;;5.35;1.42;;;10.90;99.90;;;;;;7340068;32;20202;-57
2024/04/02 19:11:10;;;;;;;4.65;1.40;;;10.80;99.90;;;;;;7335519;32;20115;-56
2024/04/02 19:15:11;;;;;;;5.75;1.60;;;10.70;99.90;;;;;;7347047;32;20140;-55
2024/04/02 19:19:13;;;;;;;8.00;2.00;;;10.70;99.90;;;;;;7342739;32;20108;-55
2024/04/02 19:23:13;;;;;;;6.28;1.75;;;10.70;99.90;;;;;;7344589;32;20126;-56
2024/04/02 19:27:14;;;;;;;6.95;1.87;;;10.70;99.90;;;;;;7346996;32;20150;-55
2024/04/02 19:31:15;;;;;;;6.93;2.15;;;10.70;99.90;;;;;;7340718;32;20222;-56
2024/04/02 19:35:16;;;;;;;10.63;1.77;;;10.60;99.90;;;;;;7344250;32;20196;-57
2024/04/02 19:39:17;;;;;;;7.70;2.30;;;10.60;99.90;;;;;;7346613;32;20111;-56
2024/04/02 19:43:18;;;;;;;7.72;1.83;;;10.60;99.90;;;;;;7343352;32;20441;-57
2024/04/02 19:47:20;;;;;;;8.18;1.73;;;10.60;99.90;;;;;;7332619;32;20111;-63
2024/04/02 19:51:21;;;;;;;6.93;1.45;;;10.50;99.90;;;;;;7341473;32;20254;-57
2024/04/02 19:55:22;;;;;;;9.98;2.30;;;10.40;99.90;;;;;;7341133;32;20497;-57
2024/04/02 19:59:23;;;;;;;8.50;2.17;;;10.30;99.90;;;;;;7335709;32;20292;-57
2024/04/02 20:03:24;;;;;;;12.23;2.28;;;10.20;99.90;;;;;;7343071;32;20356;-56
2024/04/02 20:07:24;;;;;;;8.10;1.98;;;10.10;99.90;;;;;;7338249;32;20116;-57
2024/04/02 20:11:25;;;;;;;8.07;2.12;;;9.90;99.90;;;;;;7342983;32;20524;-57
2024/04/02 20:15:26;;;;;;;6.90;2.08;;;9.80;99.90;;;;;;7339174;32;20211;-57
2024/04/02 20:19:27;;;;;;;10.93;2.60;;;9.60;99.90;;;;;;7341613;32;20111;-57
2024/04/02 20:23:29;;;;;;;16.33;6.12;;;9.40;99.90;;;;;;7342643;32;20121;-57
2024/04/02 20:27:34;;;;;;;13.90;4.78;;;9.40;99.90;;;;;;7339625;32;20461;-57
2024/04/02 20:31:36;;;;;;;13.75;4.00;;;9.40;99.90;;;;;;7343100;32;20119;-58
2024/04/02 20:35:37;;;;;;;8.93;2.67;;;9.30;99.90;;;;;;7336937;32;20273;-56
2024/04/02 20:39:38;;;;;;;10.63;2.78;;;9.30;99.90;;;;;;7340597;32;20119;-58
2024/04/02 20:43:38;;;;;;;6.95;1.98;;;9.30;99.90;;;;;;7333608;32;20149;-66
2024/04/02 20:47:39;;;;;;;8.57;2.10;;;9.20;99.90;;;;;;7338095;32;20131;-66
2024/04/02 20:51:40;;;;;;;5.05;2.08;;;9.20;99.90;;;;;;7340876;32;20160;-66
2024/04/02 20:55:41;;;;;;;12.88;2.62;;;9.20;99.90;;;;;;7342505;32;20160;-66
2024/04/02 20:59:42;;;;;;;11.57;2.22;;;9.10;99.90;;;;;;7342969;32;20295;-66
2024/04/02 21:03:43;;;;;;;8.05;2.22;;;9.10;99.90;;;;;;7340039;32;20122;-57
2024/04/02 21:07:44;;;;;;;8.23;2.50;;;9.10;99.90;;;;;;7339539;32;20182;-57
2024/04/02 21:11:46;;;;;;;9.93;2.30;;;9.20;99.90;;;;;;7336297;32;20183;-56